Time;durP1;ratioP1;P1;durP2;ratioP2;P2;SDS_P1;SDS_P2;PMS_P1;PMS_P2;Temp;Humidity;BMP_temperature;BMP_pressure;BME280_temperature;BME280_humidity;BME280_pressure;Samples;Min_cycle;Max_cycle;Signal;HPM_P1;HPM_P2
2022/08/19 00:00:27;;;;;;;26.40;13.90;;;19.00;99.90;;;;;;5054157;28;20028;-68
2022/08/19 00:02:53;;;;;;;25.13;14.10;;;19.10;99.90;;;;;;5054431;28;20063;-68
2022/08/19 00:05:20;;;;;;;25.55;13.63;;;19.00;99.90;;;;;;5054562;28;20028;-68
2022/08/19 00:07:45;;;;;;;25.48;14.32;;;19.00;99.90;;;;;;5054120;28;20597;-69
2022/08/19 00:10:14;;;;;;;26.88;14.93;;;19.00;99.90;;;;;;5054389;28;20096;-68
2022/08/19 00:12:40;;;;;;;23.60;14.88;;;19.00;99.90;;;;;;5053575;28;20036;-67
2022/08/19 00:15:12;;;;;;;27.83;15.55;;;18.90;99.90;;;;;;5054036;28;20028;-68
2022/08/19 00:17:39;;;;;;;;;;;18.90;99.90;;;;;;5054561;28;20025;-67
2022/08/19 00:20:05;;;;;;;25.13;13.95;;;18.90;99.90;;;;;;5054466;28;19985;-68
2022/08/19 00:22:31;;;;;;;24.90;14.57;;;18.80;99.90;;;;;;5074020;28;20025;-68
2022/08/19 00:24:56;;;;;;;25.20;14.60;;;18.90;99.90;;;;;;5072730;28;20016;-68
2022/08/19 00:27:22;;;;;;;26.77;13.52;;;18.90;99.90;;;;;;5074034;28;20460;-66
2022/08/19 00:29:48;;;;;;;23.27;13.30;;;18.90;99.90;;;;;;5073912;28;20096;-68
2022/08/19 00:32:13;;;;;;;23.48;13.75;;;18.80;99.90;;;;;;5073587;28;20451;-68
2022/08/19 00:34:39;;;;;;;25.25;15.15;;;18.90;99.90;;;;;;5073448;28;20016;-66
2022/08/19 00:37:04;;;;;;;24.77;14.20;;;18.80;99.90;;;;;;5073925;28;20020;-67
2022/08/19 00:39:30;;;;;;;26.20;13.52;;;18.80;99.90;;;;;;5073811;28;20025;-68
2022/08/19 00:41:57;;;;;;;30.00;15.73;;;18.80;99.90;;;;;;5073578;28;20013;-69
2022/08/19 00:44:27;;;;;;;27.75;14.60;;;18.80;99.90;;;;;;5073867;28;20457;-68
2022/08/19 00:46:55;;;;;;;24.83;14.70;;;18.80;99.90;;;;;;5073774;28;20078;-68
2022/08/19 00:49:57;;;;;;;25.65;14.55;;;18.80;99.90;;;;;;5072141;28;20036;-66
2022/08/19 00:52:31;;;;;;;27.70;14.32;;;18.80;99.90;;;;;;5031105;28;20116;-68
2022/08/19 00:54:58;;;;;;;23.92;13.93;;;18.70;99.90;;;;;;5067126;28;20051;-68
2022/08/19 00:57:30;;;;;;;27.90;14.35;;;18.80;99.90;;;;;;5073148;28;20070;-69
2022/08/19 00:59:58;;;;;;;23.58;13.18;;;18.80;99.90;;;;;;5073454;28;20440;-67
2022/08/19 01:02:24;;;;;;;25.98;11.43;;;18.70;99.90;;;;;;5073129;28;20077;-67
2022/08/19 01:04:50;;;;;;;21.50;11.85;;;18.70;99.90;;;;;;5073285;28;20116;-67
2022/08/19 01:07:16;;;;;;;23.75;12.45;;;18.80;99.90;;;;;;5073450;28;20475;-69
2022/08/19 01:09:42;;;;;;;24.30;12.30;;;18.80;99.90;;;;;;5073191;28;20024;-67
2022/08/19 01:12:08;;;;;;;23.63;12.75;;;18.80;99.90;;;;;;5072895;28;20033;-68
2022/08/19 01:14:36;;;;;;;22.00;12.15;;;18.80;99.90;;;;;;5073039;28;20016;-68
2022/08/19 01:17:02;;;;;;;24.63;11.75;;;18.80;99.90;;;;;;5072905;28;20024;-68
2022/08/19 01:19:36;;;;;;;21.23;12.23;;;18.80;99.90;;;;;;5072825;28;20024;-69
2022/08/19 01:22:23;;;;;;;22.20;12.05;;;18.80;99.90;;;;;;5073302;28;20111;-67
2022/08/19 01:24:49;;;;;;;25.42;12.43;;;18.80;99.90;;;;;;5072852;28;20389;-68
2022/08/19 01:27:15;;;;;;;24.35;12.52;;;18.80;99.90;;;;;;5071322;28;20031;-68
2022/08/19 01:29:41;;;;;;;26.83;12.50;;;18.70;99.90;;;;;;5072622;28;20025;-68
2022/08/19 01:32:11;;;;;;;23.35;12.27;;;18.70;99.90;;;;;;5072658;28;20040;-68
2022/08/19 01:34:37;;;;;;;23.30;11.95;;;18.70;99.90;;;;;;5072729;28;20052;-68
2022/08/19 01:37:10;;;;;;;20.15;11.85;;;18.70;99.90;;;;;;5072159;28;20048;-68
2022/08/19 01:39:37;;;;;;;24.40;12.68;;;18.70;99.90;;;;;;5072935;28;20048;-68
2022/08/19 01:42:04;;;;;;;20.73;11.13;;;18.70;99.90;;;;;;5072850;28;20035;-68
2022/08/19 01:44:30;;;;;;;24.20;12.90;;;18.60;99.90;;;;;;5072859;28;20044;-67
2022/08/19 01:46:56;;;;;;;22.48;12.18;;;18.60;99.90;;;;;;5072896;28;20052;-70
2022/08/19 01:49:24;;;;;;;25.30;13.65;;;18.60;99.90;;;;;;5072969;28;20025;-68
2022/08/19 01:51:50;;;;;;;25.58;12.50;;;18.60;99.90;;;;;;5072586;28;20038;-69
2022/08/19 01:54:18;;;;;;;22.25;10.18;;;18.60;99.90;;;;;;5072482;28;20020;-68
2022/08/19 01:56:44;;;;;;;24.35;13.43;;;18.60;99.90;;;;;;5072487;28;20023;-69
2022/08/19 01:59:14;;;;;;;23.83;11.38;;;18.60;99.90;;;;;;5072532;28;20041;-68
2022/08/19 02:01:40;;;;;;;23.08;11.88;;;18.60;99.90;;;;;;5072769;28;20059;-69
2022/08/19 02:04:05;;;;;;;21.75;11.65;;;18.60;99.90;;;;;;5072048;28;20020;-69
2022/08/19 02:06:32;;;;;;;23.27;11.65;;;18.50;99.90;;;;;;5072274;28;20422;-68
2022/08/19 02:08:59;;;;;;;20.42;10.88;;;18.50;99.90;;;;;;5072702;28;20016;-70
2022/08/19 02:11:31;;;;;;;22.08;11.10;;;18.50;99.90;;;;;;5072413;28;20017;-69
2022/08/19 02:13:58;;;;;;;20.80;11.43;;;18.50;99.90;;;;;;5071132;28;20370;-69
2022/08/19 02:16:24;;;;;;;23.20;11.25;;;18.50;99.90;;;;;;5072325;28;20056;-69
2022/08/19 02:18:50;;;;;;;19.50;11.18;;;18.50;99.90;;;;;;5071854;28;20629;-68
2022/08/19 02:21:17;;;;;;;25.58;11.32;;;18.50;99.90;;;;;;5072247;28;20028;-67
2022/08/19 02:23:43;;;;;;;21.25;10.05;;;18.40;99.90;;;;;;5072472;28;20107;-68
2022/08/19 02:26:09;;;;;;;21.65;11.05;;;18.40;99.90;;;;;;5071781;28;20103;-70
2022/08/19 02:28:36;;;;;;;21.02;10.93;;;18.40;99.90;;;;;;5072538;28;20020;-68
2022/08/19 02:31:03;;;;;;;23.10;11.27;;;18.30;99.90;;;;;;5072311;28;20017;-67
2022/08/19 02:33:29;;;;;;;26.20;11.32;;;18.30;99.90;;;;;;5071852;28;20060;-67
2022/08/19 02:35:54;;;;;;;23.27;12.40;;;18.30;99.90;;;;;;5072972;28;20115;-68
2022/08/19 02:38:26;;;;;;;19.80;11.18;;;18.30;99.90;;;;;;5076040;28;20429;-68
2022/08/19 02:40:55;;;;;;;18.92;10.95;;;18.30;99.90;;;;;;5075925;28;20143;-67
2022/08/19 02:43:22;;;;;;;21.10;11.90;;;18.30;99.90;;;;;;5075713;28;20032;-68
2022/08/19 02:45:48;;;;;;;22.80;11.48;;;18.20;99.90;;;;;;5075385;28;20540;-70
2022/08/19 02:48:17;;;;;;;23.85;12.07;;;18.30;99.90;;;;;;5075592;28;20111;-68
2022/08/19 02:50:43;;;;;;;23.42;13.15;;;18.20;99.90;;;;;;5074183;28;20032;-67
2022/08/19 02:53:09;;;;;;;25.63;13.63;;;18.20;99.90;;;;;;5075650;28;20032;-70
2022/08/19 02:55:35;;;;;;;24.45;13.35;;;18.20;99.90;;;;;;5075644;28;20095;-68
2022/08/19 02:58:01;;;;;;;24.80;13.82;;;18.20;99.90;;;;;;5075641;28;20044;-68
2022/08/19 03:00:27;;;;;;;25.40;14.40;;;18.20;99.90;;;;;;5074879;28;20029;-68
2022/08/19 03:02:53;;;;;;;25.77;14.48;;;18.20;99.90;;;;;;5075397;28;20408;-68
2022/08/19 03:05:19;;;;;;;26.80;14.95;;;18.20;99.90;;;;;;5075410;28;20050;-71
2022/08/19 03:07:46;;;;;;;24.65;13.55;;;18.20;99.90;;;;;;5075399;28;20463;-67
2022/08/19 03:10:12;;;;;;;29.05;15.07;;;18.20;99.90;;;;;;5075768;28;20028;-68
2022/08/19 03:12:38;;;;;;;24.95;14.55;;;18.10;99.90;;;;;;5075359;28;20052;-69
2022/08/19 03:15:08;;;;;;;30.98;16.35;;;18.10;99.90;;;;;;5074957;28;20063;-68
2022/08/19 03:17:34;;;;;;;26.98;15.63;;;18.10;99.90;;;;;;5075195;28;20099;-68
2022/08/19 03:20:00;;;;;;;31.23;15.75;;;18.00;99.90;;;;;;5075522;28;20038;-70
2022/08/19 03:22:26;;;;;;;28.95;18.10;;;18.00;99.90;;;;;;5061788;28;20032;-68
2022/08/19 03:24:53;;;;;;;34.13;18.00;;;18.00;99.90;;;;;;5055129;28;20098;-68
2022/08/19 03:27:18;;;;;;;31.80;17.75;;;18.00;99.90;;;;;;5054704;28;20379;-68
2022/08/19 03:29:44;;;;;;;33.80;20.35;;;18.00;99.90;;;;;;5054777;28;20029;-68
2022/08/19 03:32:11;;;;;;;39.58;21.13;;;18.10;99.90;;;;;;5054842;28;20430;-70
2022/08/19 03:34:38;;;;;;;47.90;23.40;;;18.00;99.90;;;;;;5054801;28;20407;-70
2022/08/19 03:37:07;;;;;;;45.13;25.75;;;18.00;99.90;;;;;;5055091;28;20114;-69
2022/08/19 03:39:33;;;;;;;48.53;23.98;;;18.00;99.90;;;;;;5054931;28;20331;-68
2022/08/19 03:42:02;;;;;;;50.13;24.38;;;18.10;99.90;;;;;;5054332;28;20433;-69
2022/08/19 03:44:29;;;;;;;45.17;25.45;;;18.00;99.90;;;;;;5054577;28;20053;-68
2022/08/19 03:46:57;;;;;;;42.65;24.38;;;18.10;99.90;;;;;;5054221;28;20033;-67
2022/08/19 03:49:26;;;;;;;48.53;26.45;;;18.10;99.90;;;;;;5053871;28;20021;-67
2022/08/19 03:51:53;;;;;;;49.28;26.65;;;18.10;99.90;;;;;;5054462;28;20024;-67
2022/08/19 03:54:22;;;;;;;48.03;25.17;;;18.00;99.90;;;;;;5054318;28;20112;-68
2022/08/19 03:56:50;;;;;;;48.80;26.92;;;18.00;99.90;;;;;;5054198;28;20029;-70
2022/08/19 03:59:20;;;;;;;47.85;25.25;;;18.00;99.90;;;;;;5054408;28;20175;-68
2022/08/19 04:01:46;;;;;;;50.72;26.33;;;18.10;99.90;;;;;;5054417;28;20037;-67
2022/08/19 04:04:11;;;;;;;49.55;26.73;;;18.00;99.90;;;;;;5054184;28;20052;-68
2022/08/19 04:06:38;;;;;;;51.25;26.30;;;18.00;99.90;;;;;;5054507;28;20029;-70
2022/08/19 04:09:06;;;;;;;46.72;24.38;;;18.00;99.90;;;;;;5054128;28;20021;-68
2022/08/19 04:11:41;;;;;;;48.35;25.00;;;18.00;99.90;;;;;;5054095;28;20455;-70
2022/08/19 04:14:08;;;;;;;46.80;25.20;;;18.00;99.90;;;;;;5054020;28;20021;-70
2022/08/19 04:16:34;;;;;;;51.38;24.85;;;18.00;99.90;;;;;;5054072;28;20103;-70
2022/08/19 04:19:03;;;;;;;54.63;26.08;;;18.00;99.90;;;;;;5054054;28;20108;-69
2022/08/19 04:21:29;;;;;;;49.88;24.23;;;17.90;99.90;;;;;;5066158;28;20020;-70
2022/08/19 04:23:56;;;;;;;47.15;25.58;;;17.90;99.90;;;;;;5073630;28;20032;-68
2022/08/19 04:26:24;;;;;;;54.13;26.10;;;17.90;99.90;;;;;;5073868;28;20379;-67
2022/08/19 04:28:51;;;;;;;53.40;25.90;;;17.90;99.90;;;;;;5073425;28;20070;-68
2022/08/19 04:31:19;;;;;;;54.08;24.77;;;17.90;99.90;;;;;;5072809;28;20358;-68
2022/08/19 04:33:45;;;;;;;55.47;26.27;;;17.90;99.90;;;;;;5073746;28;20085;-68
2022/08/19 04:36:33;;;;;;;52.05;24.45;;;17.90;99.90;;;;;;5073534;28;20033;-70
2022/08/19 04:39:05;;;;;;;59.03;26.35;;;17.90;99.90;;;;;;5073981;28;20028;-68
2022/08/19 04:44:17;;;;;;;55.47;25.60;;;17.90;99.90;;;;;;5073508;28;20112;-69
2022/08/19 04:46:44;;;;;;;54.40;26.48;;;17.90;99.90;;;;;;5072711;28;20016;-68
2022/08/19 04:49:09;;;;;;;53.25;25.60;;;18.00;99.90;;;;;;5073483;28;20051;-69
2022/08/19 04:51:36;;;;;;;51.28;25.42;;;18.00;99.90;;;;;;5073442;28;20021;-69
2022/08/19 04:54:03;;;;;;;48.95;24.48;;;18.10;99.90;;;;;;5073060;28;20088;-68
2022/08/19 04:56:29;;;;;;;52.80;23.88;;;18.20;99.90;;;;;;5072857;28;20060;-71
2022/08/19 04:58:56;;;;;;;53.10;24.90;;;18.20;99.90;;;;;;5072680;28;20075;-67
2022/08/19 05:01:25;;;;;;;46.17;22.80;;;18.40;99.90;;;;;;5072866;28;20021;-67
2022/08/19 05:03:51;;;;;;;45.50;22.02;;;18.50;99.90;;;;;;5073405;28;20032;-68
2022/08/19 05:06:19;;;;;;;42.90;23.02;;;18.60;99.90;;;;;;5073436;28;20366;-67
2022/08/19 05:08:45;;;;;;;46.28;22.30;;;18.70;99.90;;;;;;5073307;28;20036;-67
2022/08/19 05:11:15;;;;;;;41.00;21.50;;;18.80;99.90;;;;;;5072965;28;20162;-67
2022/08/19 05:13:42;;;;;;;43.10;22.30;;;18.90;99.90;;;;;;5072243;28;20032;-67
2022/08/19 05:16:11;;;;;;;45.67;21.35;;;18.90;99.90;;;;;;5073289;28;20017;-69
2022/08/19 05:24:08;;;;;;;42.22;20.65;;;19.10;99.90;;;;;;5073282;28;20055;-68
2022/08/19 05:26:37;;;;;;;45.90;21.85;;;19.10;99.90;;;;;;5073268;28;20016;-69
2022/08/19 05:29:04;;;;;;;41.22;21.55;;;19.20;99.90;;;;;;5073304;28;20016;-69
2022/08/19 05:31:30;;;;;;;43.05;22.67;;;19.20;99.90;;;;;;5073109;28;20028;-68
2022/08/19 05:33:58;;;;;;;48.15;23.77;;;19.20;99.90;;;;;;5073133;28;20024;-70
2022/08/19 05:36:25;;;;;;;45.47;20.42;;;19.30;99.90;;;;;;5072724;28;20370;-70
2022/08/19 05:38:52;;;;;;;43.42;21.80;;;19.30;99.90;;;;;;5072981;28;20446;-69
2022/08/19 05:41:18;;;;;;;43.92;21.95;;;19.40;99.90;;;;;;5073035;28;20060;-68
2022/08/19 05:43:44;;;;;;;45.03;22.75;;;19.40;99.90;;;;;;5073345;28;20024;-68
2022/08/19 05:46:18;;;;;;;43.92;23.88;;;19.40;99.90;;;;;;5073188;28;20093;-68
2022/08/19 05:48:44;;;;;;;45.15;24.85;;;19.50;99.90;;;;;;5072896;28;20021;-68
2022/08/19 05:51:10;;;;;;;43.42;23.45;;;19.50;99.90;;;;;;5072677;28;20424;-68
2022/08/19 05:53:36;;;;;;;46.13;22.05;;;19.50;99.90;;;;;;5072832;28;20047;-69
2022/08/19 05:56:10;;;;;;;46.97;24.65;;;19.50;99.90;;;;;;5072843;28;20062;-68
2022/08/19 05:58:37;;;;;;;49.83;25.88;;;19.50;99.90;;;;;;5072698;28;20040;-70
2022/08/19 06:01:08;;;;;;;45.40;25.10;;;19.60;99.90;;;;;;5071483;28;20416;-68
2022/08/19 06:03:35;;;;;;;52.42;25.45;;;19.70;99.90;;;;;;5073034;28;20029;-68
2022/08/19 06:06:02;;;;;;;49.50;26.05;;;19.80;99.90;;;;;;5072708;28;20450;-68
2022/08/19 06:08:28;;;;;;;49.22;25.75;;;20.00;99.90;;;;;;5073121;28;20059;-68
2022/08/19 06:10:54;;;;;;;45.95;25.00;;;20.30;99.90;;;;;;5073743;28;20429;-68
2022/08/19 06:13:20;;;;;;;47.97;25.60;;;20.40;99.90;;;;;;5076460;28;20096;-68
2022/08/19 06:15:46;;;;;;;42.92;23.02;;;20.60;99.90;;;;;;5075787;28;20023;-66
2022/08/19 06:18:13;;;;;;;47.53;24.20;;;20.80;99.90;;;;;;5076764;28;20025;-70
2022/08/19 06:20:40;;;;;;;46.85;26.40;;;20.80;99.90;;;;;;5076330;28;20050;-67
2022/08/19 06:23:06;;;;;;;46.83;25.52;;;20.90;99.90;;;;;;5076516;28;20035;-68
2022/08/19 06:25:32;;;;;;;51.20;25.38;;;21.00;99.90;;;;;;5076492;28;20530;-68
2022/08/19 06:27:57;;;;;;;48.03;26.52;;;21.00;99.90;;;;;;5076408;28;20052;-68
2022/08/19 06:30:23;;;;;;;50.55;26.73;;;21.10;99.90;;;;;;5076339;28;20051;-69
2022/08/19 06:32:48;;;;;;;50.60;26.48;;;21.20;99.90;;;;;;5076087;28;20536;-68
2022/08/19 06:35:14;;;;;;;44.10;25.35;;;21.30;99.90;;;;;;5076009;28;20099;-67
2022/08/19 06:37:40;;;;;;;40.50;22.45;;;21.50;99.90;;;;;;5076178;28;20024;-68
2022/08/19 06:40:08;;;;;;;44.63;23.65;;;21.60;99.90;;;;;;5076095;28;20027;-71
2022/08/19 06:42:35;;;;;;;43.75;25.20;;;21.70;99.90;;;;;;5076305;28;20055;-67
2022/08/19 06:45:02;;;;;;;48.22;24.05;;;22.00;99.90;;;;;;5076238;28;20017;-70
2022/08/19 06:47:28;;;;;;;45.00;22.50;;;22.40;99.90;;;;;;5076011;28;20027;-68
2022/08/19 06:50:03;;;;;;;40.80;22.75;;;22.70;99.90;;;;;;5075770;28;20028;-70
2022/08/19 06:52:35;;;;;;;39.72;23.38;;;23.10;99.90;;;;;;5075849;28;20060;-67
2022/08/19 06:55:02;;;;;;;36.53;19.30;;;23.40;99.90;;;;;;5076061;28;20020;-68
2022/08/19 06:57:32;;;;;;;36.40;20.35;;;23.60;99.90;;;;;;5075817;28;20028;-69
2022/08/19 06:59:59;;;;;;;36.78;19.30;;;23.90;99.90;;;;;;5075736;28;20040;-68
2022/08/19 07:02:26;;;;;;;36.58;20.50;;;24.30;99.90;;;;;;5075700;28;20048;-68
2022/08/19 07:04:52;;;;;;;35.67;19.25;;;24.60;99.90;;;;;;5075798;28;20028;-68
2022/08/19 07:07:19;;;;;;;33.78;19.63;;;24.90;99.90;;;;;;5056921;28;20052;-67
2022/08/19 07:09:45;;;;;;;31.17;18.08;;;25.20;99.90;;;;;;5055301;28;20024;-68
2022/08/19 07:12:15;;;;;;;30.17;17.13;;;25.50;99.90;;;;;;5053931;28;20051;-69
2022/08/19 07:14:41;;;;;;;32.35;16.90;;;26.00;99.90;;;;;;5054965;28;20467;-68
2022/08/19 07:17:09;;;;;;;28.17;15.68;;;26.50;99.90;;;;;;5055412;28;20033;-70
2022/08/19 07:19:36;;;;;;;28.80;14.80;;;26.70;99.90;;;;;;5055526;28;20072;-68
2022/08/19 07:22:04;;;;;;;35.88;16.50;;;26.70;99.90;;;;;;5055163;28;20032;-66
2022/08/19 07:24:30;;;;;;;32.17;15.32;;;26.70;99.90;;;;;;5055189;28;20025;-69
2022/08/19 07:27:00;;;;;;;23.25;10.68;;;26.50;99.90;;;;;;5055084;28;20402;-67
2022/08/19 07:29:26;;;;;;;26.73;13.60;;;26.10;99.90;;;;;;5054951;28;20102;-70
2022/08/19 07:31:56;;;;;;;29.80;14.07;;;25.70;99.90;;;;;;5054783;28;20382;-68
2022/08/19 07:34:23;;;;;;;22.20;11.05;;;25.40;99.90;;;;;;5055274;28;20025;-68
2022/08/19 07:36:49;;;;;;;25.42;12.05;;;25.30;99.90;;;;;;5054646;28;20025;-67
2022/08/19 07:39:20;;;;;;;19.98;8.40;;;25.10;99.90;;;;;;5055153;28;20044;-69
2022/08/19 07:41:46;;;;;;;21.38;8.80;;;24.90;99.90;;;;;;5054572;28;20125;-67
2022/08/19 07:44:13;;;;;;;19.90;6.90;;;24.80;99.90;;;;;;5054851;28;20029;-70
2022/08/19 07:46:44;;;;;;;19.08;7.28;;;24.90;99.90;;;;;;5054986;28;20025;-68
2022/08/19 07:49:17;;;;;;;18.02;6.47;;;24.90;99.90;;;;;;5054756;28;20021;-67
2022/08/19 07:51:43;;;;;;;15.55;5.80;;;25.20;99.90;;;;;;5054658;28;20059;-68
2022/08/19 07:54:09;;;;;;;15.30;7.10;;;25.20;99.90;;;;;;5054618;28;20121;-69
2022/08/19 07:56:35;;;;;;;14.98;5.60;;;25.30;99.90;;;;;;5054792;28;20506;-69
2022/08/19 07:59:00;;;;;;;21.15;6.53;;;25.50;99.90;;;;;;5054303;28;20045;-69
2022/08/19 08:01:27;;;;;;;19.67;8.05;;;25.60;99.90;;;;;;5054480;28;20397;-66
2022/08/19 08:09:27;;;;;;;15.93;6.57;;;25.40;99.90;;;;;;5063239;28;20028;-66
2022/08/19 08:12:23;;;;;;;15.93;7.05;;;25.40;99.90;;;;;;5072814;28;20124;-68
2022/08/19 08:14:52;;;;;;;19.38;7.90;;;25.70;99.90;;;;;;5071641;28;20029;-68
2022/08/19 08:17:21;;;;;;;18.58;6.05;;;25.80;99.90;;;;;;5072649;28;20027;-69
2022/08/19 08:19:49;;;;;;;15.57;6.07;;;25.60;99.90;;;;;;5069427;28;20028;-67
2022/08/19 08:25:08;;;;;;;13.43;5.03;;;26.00;99.90;;;;;;5073349;28;20135;-67
2022/08/19 08:27:39;;;;;;;12.95;5.63;;;26.60;99.90;;;;;;5068976;28;20017;-68
2022/08/19 08:30:10;;;;;;;14.45;5.60;;;27.10;99.90;;;;;;5062458;28;20020;-67
2022/08/19 08:32:40;;;;;;;16.02;5.93;;;27.60;99.90;;;;;;5065482;28;20040;-68
2022/08/19 08:35:09;;;;;;;13.85;5.55;;;27.70;99.90;;;;;;5066911;28;20366;-68
2022/08/19 08:37:35;;;;;;;14.73;5.13;;;27.80;99.90;;;;;;5073827;28;20028;-68
2022/08/19 08:40:27;;;;;;;13.00;5.70;;;28.50;99.90;;;;;;5060703;28;20029;-67
2022/08/19 08:43:04;;;;;;;12.98;5.30;;;29.20;99.90;;;;;;5062157;28;20013;-67
2022/08/19 08:45:30;;;;;;;10.05;5.32;;;29.40;99.70;;;;;;5073392;28;20446;-70
2022/08/19 08:48:01;;;;;;;11.85;5.15;;;29.10;99.90;;;;;;5073810;28;20024;-68
2022/08/19 08:50:38;;;;;;;12.02;5.30;;;29.00;99.90;;;;;;5055816;28;20028;-70
2022/08/19 08:53:07;;;;;;;14.13;5.47;;;28.80;99.90;;;;;;5053430;28;20029;-68
2022/08/19 08:55:33;;;;;;;15.35;6.32;;;28.50;99.90;;;;;;5071730;28;20021;-68
2022/08/19 08:58:06;;;;;;;14.35;5.38;;;28.20;99.90;;;;;;5073265;28;20493;-68
2022/08/19 09:00:45;;;;;;;11.85;5.68;;;27.80;99.90;;;;;;5072807;28;20415;-68
2022/08/19 09:03:22;;;;;;;13.40;5.38;;;27.60;99.90;;;;;;5072072;28;20044;-67
2022/08/19 09:06:05;;;;;;;17.23;5.88;;;27.60;99.90;;;;;;5070717;28;20103;-68
2022/08/19 09:09:12;;;;;;;17.10;5.25;;;27.60;99.90;;;;;;5071007;28;20104;-68
2022/08/19 09:11:50;;;;;;;12.15;5.40;;;27.70;99.90;;;;;;5071735;28;20016;-69
2022/08/19 09:14:40;;;;;;;12.35;5.85;;;27.70;99.90;;;;;;5072048;28;20347;-68
2022/08/19 09:17:08;;;;;;;13.20;5.45;;;27.80;99.90;;;;;;5070526;28;20024;-66
2022/08/19 09:19:35;;;;;;;10.63;5.22;;;27.80;99.90;;;;;;5071223;28;20090;-69
2022/08/19 09:22:01;;;;;;;12.10;5.68;;;27.80;99.90;;;;;;5071727;28;20508;-67
2022/08/19 09:24:27;;;;;;;11.85;4.80;;;27.80;99.90;;;;;;5072006;28;20024;-67
2022/08/19 09:26:52;;;;;;;11.63;4.82;;;27.70;99.90;;;;;;5071858;28;20099;-69
2022/08/19 09:29:18;;;;;;;14.98;5.05;;;27.60;99.90;;;;;;5065634;28;20033;-68
2022/08/19 09:31:44;;;;;;;12.07;4.18;;;27.50;99.90;;;;;;5062736;28;20091;-70
2022/08/19 09:34:09;;;;;;;12.07;4.13;;;27.50;99.90;;;;;;5069453;28;20024;-69
2022/08/19 09:36:38;;;;;;;11.77;4.05;;;27.60;99.90;;;;;;5068914;28;20027;-70
2022/08/19 09:39:05;;;;;;;10.52;4.32;;;27.80;99.90;;;;;;5069455;28;20013;-69
2022/08/19 09:41:31;;;;;;;8.63;3.92;;;28.00;99.90;;;;;;5072622;28;20099;-69
2022/08/19 09:43:58;;;;;;;14.80;4.72;;;28.10;99.90;;;;;;5073068;28;20044;-69
2022/08/19 09:46:26;;;;;;;7.78;3.95;;;28.50;99.90;;;;;;5074308;28;20373;-67
2022/08/19 09:48:52;;;;;;;11.15;4.35;;;29.10;99.90;;;;;;5075130;28;20023;-69
2022/08/19 09:51:21;;;;;;;11.25;5.18;;;29.50;99.30;;;;;;5076491;28;20033;-67
2022/08/19 09:53:50;;;;;;;11.38;4.00;;;29.90;98.80;;;;;;5070181;28;20424;-66
2022/08/19 09:56:17;;;;;;;13.50;5.13;;;30.00;98.30;;;;;;5075211;28;20059;-67
2022/08/19 09:58:43;;;;;;;13.70;4.80;;;30.00;98.60;;;;;;5075383;28;20049;-70
2022/08/19 10:01:09;;;;;;;10.55;3.90;;;29.90;98.40;;;;;;5076598;28;20096;-70
2022/08/19 10:03:36;;;;;;;8.32;3.38;;;29.80;98.30;;;;;;5076337;28;20021;-67
2022/08/19 10:06:03;;;;;;;10.23;3.17;;;29.50;98.30;;;;;;5072334;28;20415;-69
2022/08/19 10:08:32;;;;;;;13.45;3.95;;;29.40;98.50;;;;;;5077282;28;20024;-70
2022/08/19 10:10:59;;;;;;;9.05;3.70;;;29.30;98.90;;;;;;5080207;28;20035;-66
2022/08/19 10:13:28;;;;;;;7.47;3.30;;;29.20;98.90;;;;;;5065159;28;20060;-67
2022/08/19 10:15:56;;;;;;;9.98;3.58;;;29.10;99.20;;;;;;5072335;28;20094;-70
2022/08/19 10:18:25;;;;;;;6.75;3.30;;;29.10;98.50;;;;;;5071820;28;20021;-67
2022/08/19 10:20:54;;;;;;;8.73;3.58;;;29.20;98.40;;;;;;5073859;28;20030;-67
2022/08/19 10:23:20;;;;;;;9.73;3.58;;;29.20;98.40;;;;;;5075084;28;20446;-67
2022/08/19 10:25:46;;;;;;;9.13;3.20;;;29.20;98.40;;;;;;5075371;28;20117;-68
2022/08/19 10:28:12;;;;;;;10.95;3.92;;;29.00;98.60;;;;;;5072831;28;20099;-70
2022/08/19 10:30:39;;;;;;;8.93;2.88;;;28.70;99.00;;;;;;5075042;28;20031;-70
2022/08/19 10:33:06;;;;;;;10.95;3.17;;;28.40;99.40;;;;;;5059640;28;20055;-66
2022/08/19 10:35:32;;;;;;;10.77;2.92;;;28.20;99.90;;;;;;5072103;28;20864;-68
2022/08/19 10:38:01;;;;;;;9.15;3.30;;;28.00;99.90;;;;;;5074418;28;20086;-67
2022/08/19 10:40:28;;;;;;;7.10;3.25;;;28.10;99.90;;;;;;5074745;28;20107;-67
2022/08/19 10:42:55;;;;;;;7.32;3.30;;;28.20;99.90;;;;;;5074888;28;20078;-68
2022/08/19 10:45:23;;;;;;;8.55;3.20;;;28.70;99.90;;;;;;5075414;28;20486;-67
2022/08/19 10:47:49;;;;;;;8.63;3.42;;;29.30;99.10;;;;;;5075208;28;20027;-68
2022/08/19 10:53:04;;;;;;;11.00;3.35;;;30.10;97.60;;;;;;5075679;28;20043;-70
2022/08/19 10:58:22;;;;;;;6.72;2.72;;;30.60;96.90;;;;;;5075242;28;20127;-67
2022/08/19 11:00:55;;;;;;;7.45;3.03;;;31.00;96.10;;;;;;5074345;28;20021;-67
2022/08/19 11:03:22;;;;;;;5.93;3.08;;;31.60;95.80;;;;;;5074359;28;20056;-68
2022/08/19 11:06:05;;;;;;;7.07;2.78;;;32.40;94.70;;;;;;5075102;28;20067;-67
2022/08/19 11:08:32;;;;;;;5.95;2.83;;;33.00;93.70;;;;;;5074089;28;20370;-68
2022/08/19 11:11:00;;;;;;;7.70;3.20;;;33.30;93.30;;;;;;5075259;28;20056;-67
2022/08/19 11:13:32;;;;;;;6.60;3.10;;;33.60;92.70;;;;;;5075341;28;20040;-67
2022/08/19 11:16:04;;;;;;;6.38;2.75;;;33.80;92.00;;;;;;5075174;28;20028;-69
2022/08/19 11:18:29;;;;;;;5.65;2.63;;;33.90;91.60;;;;;;5061938;28;20108;-69
2022/08/19 11:21:05;;;;;;;10.68;3.70;;;33.80;91.70;;;;;;5072832;28;20091;-67
2022/08/19 11:23:30;;;;;;;7.13;2.92;;;33.80;91.60;;;;;;5073004;28;20012;-69
2022/08/19 11:25:56;;;;;;;5.75;2.63;;;33.40;91.40;;;;;;5060378;28;20206;-67
2022/08/19 11:28:22;;;;;;;5.35;3.00;;;33.10;92.00;;;;;;5053308;28;20028;-67
2022/08/19 11:30:47;;;;;;;6.57;2.53;;;33.80;91.40;;;;;;5052647;28;20047;-67
2022/08/19 11:33:13;;;;;;;6.45;2.58;;;34.10;90.70;;;;;;5053511;28;20040;-69
2022/08/19 11:35:40;;;;;;;5.07;2.20;;;33.80;91.00;;;;;;5073684;28;20028;-67
2022/08/19 11:38:06;;;;;;;6.95;2.22;;;33.80;91.20;;;;;;5073425;28;20029;-67
2022/08/19 11:40:33;;;;;;;7.82;2.40;;;33.70;90.50;;;;;;5075186;28;20028;-68
2022/08/19 11:42:58;;;;;;;4.88;2.08;;;33.30;90.90;;;;;;5075361;28;20027;-67
2022/08/19 11:45:26;;;;;;;6.60;2.58;;;32.90;91.30;;;;;;5074972;28;20020;-68
2022/08/19 11:47:52;;;;;;;4.95;2.25;;;32.30;92.00;;;;;;5075287;28;20052;-68
2022/08/19 11:50:18;;;;;;;7.85;2.50;;;31.70;92.70;;;;;;5074064;28;20029;-67
2022/08/19 11:52:44;;;;;;;7.45;2.53;;;31.30;93.10;;;;;;5055116;28;20443;-67
2022/08/19 11:55:11;;;;;;;8.40;2.80;;;30.90;93.40;;;;;;5055041;28;20497;-67
2022/08/19 11:57:37;;;;;;;6.00;2.67;;;30.60;93.80;;;;;;5054718;28;20087;-66
2022/08/19 12:00:05;;;;;;;7.90;2.58;;;30.50;94.40;;;;;;5054418;28;20037;-67
2022/08/19 12:02:31;;;;;;;6.10;2.38;;;30.70;94.40;;;;;;5071842;28;20024;-67
2022/08/19 12:04:57;;;;;;;4.57;2.33;;;31.20;94.00;;;;;;5074452;28;20068;-69
2022/08/19 12:07:22;;;;;;;4.80;2.35;;;31.50;93.60;;;;;;5074591;28;20143;-68
2022/08/19 12:09:48;;;;;;;5.30;2.20;;;31.60;93.30;;;;;;5073345;28;20066;-68
2022/08/19 12:12:14;;;;;;;4.82;2.30;;;31.50;92.80;;;;;;5074085;28;20035;-69
2022/08/19 12:14:39;;;;;;;6.75;2.33;;;31.30;93.10;;;;;;5074171;28;20027;-67
2022/08/19 12:17:07;;;;;;;2.83;1.70;;;31.10;93.60;;;;;;5074429;28;20523;-67
2022/08/19 12:19:33;;;;;;;5.70;1.90;;;31.00;93.70;;;;;;5074567;28;20070;-70
2022/08/19 12:22:02;;;;;;;4.47;2.00;;;31.20;93.40;;;;;;5074447;28;20443;-67
2022/08/19 12:24:31;;;;;;;6.03;1.90;;;31.50;93.30;;;;;;5074220;28;20455;-67
2022/08/19 12:26:58;;;;;;;4.65;1.63;;;32.30;92.00;;;;;;5074420;28;20033;-65
2022/08/19 12:29:28;;;;;;;7.63;2.03;;;32.70;91.60;;;;;;5074164;28;20108;-67
2022/08/19 12:32:00;;;;;;;3.80;1.80;;;32.70;91.20;;;;;;5074004;28;20355;-69
2022/08/19 12:34:29;;;;;;;5.50;1.60;;;32.70;91.60;;;;;;5059720;28;20451;-70
2022/08/19 12:36:55;;;;;;;5.22;2.17;;;32.90;91.40;;;;;;5069441;28;20070;-69
2022/08/19 12:39:21;;;;;;;4.68;1.95;;;33.60;90.80;;;;;;5073671;28;20370;-67
2022/08/19 12:41:48;;;;;;;4.22;1.88;;;34.60;90.20;;;;;;5073728;28;20025;-69
2022/08/19 12:44:14;;;;;;;2.72;1.70;;;35.30;89.00;;;;;;5073563;28;20017;-68
2022/08/19 12:46:40;;;;;;;6.28;1.83;;;35.30;87.90;;;;;;5073604;28;20319;-67
2022/08/19 12:49:05;;;;;;;5.25;1.73;;;34.80;87.70;;;;;;5074071;28;20047;-67
2022/08/19 12:51:31;;;;;;;3.58;1.90;;;34.20;88.40;;;;;;5073588;28;20144;-70
2022/08/19 12:53:57;;;;;;;6.47;1.98;;;33.30;90.10;;;;;;5073385;28;20457;-67
2022/08/19 12:56:22;;;;;;;4.43;1.77;;;32.80;90.70;;;;;;5067292;28;20028;-67
2022/08/19 12:58:49;;;;;;;1.63;1.35;;;32.70;90.90;;;;;;5055497;28;20095;-71